RPVP

Puerto Princesa Airport

Puerto Princesa City, Philippines
TAF RPVP 210500Z 2106/2206 09005KT 9999 FEW019 SCT080 TEMPO 2106/2112 09012KT 8000 -TSRA SCT017CB SCT019 OVC080
Issued Valid From Valid To
Apr-21 @ 05:00 UTC
(5 hours ago)
Apr-21 @ 06:00 UTC
(4 hours ago)
Apr-22 @ 06:00 UTC
(in 20 hours)
Apr-21 @ 06:00 to Apr-22 @ 06:00
TAF RPVP 210500Z 2106/2206 09005KT 9999 FEW019 SCT080
Wind Visibility Clouds
90° at 5 knots 10,000+ meters
  • Few at 1,900' AGL
  • Scattered at 8,000' AGL
Temporary Apr-21 @ 06:00 to Apr-21 @ 12:00
TEMPO 2106/2112 09012KT 8000 -TSRA SCT017CB SCT019 OVC080
Wind Visibility Clouds Conditions
90° at 12 knots 7,998 meters
  • Scattered at 1,700' AGL
  • Scattered at 1,900' AGL
  • Overcast at 8,000' AGL
  • Light Thunderstorm
  • Light Rain
TAF RPVP 210500Z 2106/2206 09005KT 9999 FEW019 SCT080 TEMPO 2106/2112 09012KT 8000 -TSRA SCT017CB SCT019 OVC080
Issued Apr-21 @ 05:00 UTC
(5 hours ago)
Valid From Apr-21 @ 06:00 UTC
(4 hours ago)
Valid To Apr-22 @ 06:00 UTC
(in 20 hours)
Apr-21 @ 06:00 - Apr-22 @ 06:00
Wind Visibility
90° at 5 knots 10,000+ meters
Clouds
  • Few at 1,900' AGL
  • Scattered at 8,000' AGL
Temporary Apr-21 @ 06:00 - Apr-21 @ 12:00
Wind Visibility
90° at 12 knots 7,998 meters
Clouds
  • Scattered at 1,700' AGL
  • Scattered at 1,900' AGL
  • Overcast at 8,000' AGL
Conditions
  • Light Thunderstorm
  • Light Rain